Terminal Aerodrome Forecast
Issued by NWS Northern Indiana

Home | Current Version | Previous Version | Graphics & Text | Print | Product List | Glossary On
Versions: 1 2 3 4 5 6 7 8 9 10 11 12 13 14 15 16 17
000
FTUS43 KIWX 161700
TAFFWA
TAF
KFWA 161720Z 1618/1718 25014G24KT 6SM -DZ VCSH OVC008
     FM170100 27017G24KT P6SM OVC010
     FM170600 27015G23KT P6SM SCT015 BKN035=

USA.gov is the U.S. government's official web portal to all federal, state and local government web resources and services.